Time;durP1;ratioP1;P1;durP2;ratioP2;P2;SDS_P1;SDS_P2;PMS_P1;PMS_P2;Temp;Humidity;BMP_temperature;BMP_pressure;BME280_temperature;BME280_humidity;BME280_pressure;Samples;Min_cycle;Max_cycle;Signal;HPM_P1;HPM_P2
2022/10/21 00:01:19;;;;;;;20.33;13.00;;;;;;;13.66;65.89;99732.47;4094418;28;20334;-34
2022/10/21 00:03:22;;;;;;;18.50;12.30;;;;;;;14.07;65.38;99681.38;4097033;28;20364;-35
2022/10/21 00:05:24;;;;;;;18.13;12.23;;;;;;;15.43;62.02;99614.81;4096313;28;20939;-38
2022/10/21 00:07:26;;;;;;;18.03;12.27;;;;;;;15.20;61.27;99643.22;4099313;28;20279;-37
2022/10/21 00:09:27;;;;;;;17.70;12.63;;;;;;;14.36;63.82;99712.38;4119028;28;20265;-39
2022/10/21 00:11:29;;;;;;;18.43;12.47;;;;;;;15.01;63.09;99649.56;4101327;28;20265;-35
2022/10/21 00:13:32;;;;;;;17.37;11.93;;;;;;;15.07;62.82;99664.84;4099788;28;20238;-33
2022/10/21 00:15:36;;;;;;;17.77;12.37;;;;;;;14.75;63.23;99697.94;4094067;28;20269;-39
2022/10/21 00:17:40;;;;;;;17.10;12.70;;;;;;;15.48;60.80;99650.03;4093053;28;20262;-38
2022/10/21 00:19:41;;;;;;;18.53;13.17;;;;;;;14.85;62.54;99699.38;4097844;28;20276;-34
2022/10/21 00:21:43;;;;;;;18.63;13.43;;;;;;;15.03;62.32;99677.94;4097687;28;20262;-36
2022/10/21 00:23:45;;;;;;;17.17;13.20;;;;;;;15.00;62.32;99678.38;4103649;28;20752;-40
2022/10/21 00:25:47;;;;;;;18.43;12.97;;;;;;;15.18;61.38;99666.03;4101431;28;20813;-36
2022/10/21 00:27:49;;;;;;;20.30;12.87;;;;;;;14.78;63.54;99659.00;4101318;28;20241;-41
2022/10/21 00:29:50;;;;;;;21.30;13.13;;;;;;;14.62;64.08;99651.41;4102022;28;20234;-35
2022/10/21 00:31:53;;;;;;;29.23;14.00;;;;;;;14.66;63.62;99631.06;4126834;28;20292;-35
2022/10/21 00:33:54;;;;;;;58.83;15.40;;;;;;;12.70;70.05;99697.72;4100855;28;20220;-39
2022/10/21 00:36:01;;;;;;;55.27;15.60;;;;;;;13.47;68.57;99639.22;4096765;28;20297;-40
2022/10/21 00:38:03;;;;;;;125.83;18.37;;;;;;;12.58;70.82;99683.22;4104008;28;20240;-39
2022/10/21 00:40:05;;;;;;;192.80;19.00;;;;;;;12.95;70.50;99656.91;4096629;28;20257;-42
2022/10/21 00:42:15;;;;;;;214.70;20.90;;;;;;;13.42;69.61;99593.34;4101058;28;20443;-37
2022/10/21 00:44:16;;;;;;;116.37;18.53;;;;;;;13.85;67.99;99563.25;4098455;28;20684;-36
2022/10/21 00:46:25;;;;;;;144.47;18.97;;;;;;;13.56;67.90;99605.72;4097780;28;20269;-35
2022/10/21 00:48:35;;;;;;;375.50;28.50;;;;;;;13.74;68.35;99596.19;4097399;28;20241;-34
2022/10/21 00:50:42;;;;;;;280.47;23.63;;;;;;;14.28;65.64;99565.41;4117323;22;20246;-32
2022/10/21 00:52:43;;;;;;;102.80;19.57;;;;;;;14.09;67.15;99569.00;4130354;28;20252;-32
2022/10/21 00:54:47;;;;;;;149.83;19.87;;;;;;;14.64;65.66;99545.09;4127826;28;20291;-32
2022/10/21 00:56:51;;;;;;;65.13;17.87;;;;;;;14.89;64.38;99541.66;4121762;28;20316;-33
2022/10/21 00:58:56;;;;;;;57.07;16.77;;;;;;;15.56;61.98;99538.41;4152213;28;20836;-32
2022/10/21 01:01:01;;;;;;;75.90;18.33;;;;;;;14.52;64.69;99581.84;4146188;28;20263;-32
2022/10/21 01:03:03;;;;;;;39.87;17.03;;;;;;;15.11;63.24;99537.53;4143405;28;20875;-32
2022/10/21 01:05:07;;;;;;;106.03;20.47;;;;;;;14.54;64.74;99567.16;4132419;28;20678;-32
2022/10/21 01:07:09;;;;;;;236.53;23.40;;;;;;;13.98;65.84;99595.47;4131836;28;20263;-32
2022/10/21 01:09:12;;;;;;;35.60;16.57;;;;;;;15.12;63.42;99512.25;4132271;28;20800;-32
2022/10/21 01:11:18;;;;;;;21.93;15.43;;;;;;;15.12;62.19;99516.81;4139921;28;20235;-32
2022/10/21 01:13:38;;;;;;;26.10;15.93;;;;;;;14.12;65.04;99573.94;4129674;28;20319;-32
2022/10/21 01:15:44;;;;;;;25.47;16.03;;;;;;;13.53;68.10;99584.66;4146838;28;20814;-32
2022/10/21 01:18:18;;;;;;;26.13;15.27;;;;;;;14.36;66.15;99521.28;4129289;28;20559;-32
2022/10/21 01:20:49;;;;;;;24.27;14.90;;;;;;;15.66;62.81;99493.69;4096023;28;20268;-32
2022/10/21 01:23:18;;;;;;;26.60;15.23;;;;;;;16.43;59.84;99478.78;4125844;28;20537;-32
2022/10/21 01:25:41;;;;;;;21.63;14.27;;;;;;;15.13;62.06;99535.47;4125444;28;20331;-32
2022/10/21 01:28:09;;;;;;;28.63;16.07;;;;;;;15.34;62.07;99522.63;4113653;28;20721;-32
2022/10/21 01:30:34;;;;;;;25.40;15.23;;;;;;;15.75;61.49;99507.69;4143918;28;20228;-32
2022/10/21 01:32:47;;;;;;;23.83;14.50;;;;;;;15.24;62.33;99525.00;4132272;28;20767;-32
2022/10/21 01:35:01;;;;;;;19.20;14.07;;;;;;;14.20;65.18;99566.47;4118592;28;20323;-32
2022/10/21 01:37:25;;;;;;;18.90;13.97;;;;;;;14.50;65.13;99536.28;4129804;28;20698;-32
2022/10/21 01:39:40;;;;;;;21.93;14.90;;;;;;;14.86;63.54;99502.50;4120334;28;20281;-32
2022/10/21 01:41:51;;;;;;;23.10;16.10;;;;;;;14.67;64.56;99512.34;4136402;28;20540;-32
2022/10/21 01:44:08;;;;;;;21.93;15.60;;;;;;;14.95;63.65;99481.53;4125756;28;20401;-32
2022/10/21 01:46:30;;;;;;;19.67;14.33;;;;;;;15.06;62.83;99467.31;4128569;28;20258;-32
2022/10/21 01:48:36;;;;;;;17.90;14.00;;;;;;;15.46;62.34;99472.28;4125695;28;20709;-32
2022/10/21 01:50:45;;;;;;;19.33;14.03;;;;;;;15.81;60.92;99466.31;4131625;28;20267;-32
2022/10/21 01:52:50;;;;;;;18.47;13.50;;;;;;;15.76;61.11;99479.66;4122485;28;20338;-32
2022/10/21 01:55:05;;;;;;;22.87;13.57;;;;;;;16.22;59.83;99486.31;4123209;28;20290;-33
2022/10/21 01:57:11;;;;;;;18.83;12.63;;;;;;;15.70;60.46;99499.44;4120152;28;20257;-32
2022/10/21 01:59:14;;;;;;;22.23;12.87;;;;;;;15.18;61.58;99525.88;4112926;28;20260;-32
2022/10/21 02:01:18;;;;;;;21.37;13.67;;;;;;;14.47;64.50;99544.78;4151706;28;20320;-33
2022/10/21 02:03:24;;;;;;;22.90;13.87;;;;;;;15.23;62.47;99477.50;4120740;28;20251;-33
2022/10/21 02:05:31;;;;;;;22.17;14.07;;;;;;;14.75;63.83;99512.09;4117858;28;20259;-33
2022/10/21 02:07:33;;;;;;;22.63;15.60;;;;;;;15.26;62.11;99475.19;4128015;28;20886;-33
2022/10/21 02:09:34;;;;;;;25.80;15.80;;;;;;;14.80;63.45;99495.28;4123109;28;20728;-33
2022/10/21 02:11:37;;;;;;;24.97;15.30;;;;;;;15.13;62.32;99460.00;4127427;28;20240;-32
2022/10/21 02:13:50;;;;;;;25.00;14.93;;;;;;;15.16;62.65;99460.59;4127153;28;20621;-33
2022/10/21 02:15:55;;;;;;;19.57;14.10;;;;;;;16.77;58.86;99406.97;4113537;28;20331;-32
2022/10/21 02:18:06;;;;;;;24.07;14.40;;;;;;;15.96;60.04;99420.06;4126196;28;21297;-33
2022/10/21 02:20:12;;;;;;;18.93;13.43;;;;;;;16.74;57.90;99393.09;4121341;28;20232;-33
2022/10/21 02:22:19;;;;;;;19.57;13.63;;;;;;;16.36;58.79;99418.66;4116208;28;20263;-32
2022/10/21 02:24:26;;;;;;;14.87;12.57;;;;;;;16.92;57.78;99400.25;4124157;28;20224;-30
2022/10/21 02:26:28;;;;;;;17.57;12.80;;;;;;;17.03;56.89;99398.66;4128014;28;20255;-33
2022/10/21 02:28:31;;;;;;;20.73;13.47;;;;;;;15.39;60.69;99474.25;4124765;28;20620;-31
2022/10/21 02:30:53;;;;;;;19.70;13.93;;;;;;;15.06;61.59;99480.78;4128808;28;20327;-33
2022/10/21 02:33:08;;;;;;;17.83;12.30;;;;;;;14.59;62.73;99488.38;4123274;28;20308;-30
2022/10/21 02:35:16;;;;;;;20.27;13.83;;;;;;;13.98;64.74;99505.91;4126995;28;20246;-33
2022/10/21 02:37:32;;;;;;;23.47;14.37;;;;;;;13.88;64.82;99490.22;4118924;28;20323;-33
2022/10/21 02:39:40;;;;;;;21.37;15.03;;;;;;;13.95;65.35;99474.88;4124942;28;20236;-33
2022/10/21 02:41:43;;;;;;;26.10;14.83;;;;;;;13.78;65.60;99469.16;4136704;28;20737;-32
2022/10/21 02:43:45;;;;;;;20.57;15.37;;;;;;;13.93;66.06;99455.44;4119426;28;20252;-32
2022/10/21 02:45:47;;;;;;;21.70;15.37;;;;;;;13.98;65.25;99452.91;4128532;28;20267;-32
2022/10/21 02:47:49;;;;;;;25.57;16.17;;;;;;;14.15;64.51;99445.19;4151742;28;20229;-33
2022/10/21 02:49:51;;;;;;;33.63;16.17;;;;;;;13.53;65.79;99446.69;4115788;28;20693;-32
2022/10/21 02:51:52;;;;;;;22.70;15.70;;;;;;;13.50;66.70;99450.66;4129741;28;20324;-31
2022/10/21 02:53:54;;;;;;;25.30;16.17;;;;;;;13.74;66.06;99434.84;4123200;28;20311;-33
2022/10/21 02:55:56;;;;;;;36.67;17.40;;;;;;;13.13;67.55;99446.78;4129432;28;20259;-33
2022/10/21 02:57:58;;;;;;;37.17;16.33;;;;;;;13.26;67.27;99444.06;4129838;28;20248;-30
2022/10/21 02:59:59;;;;;;;49.27;17.47;;;;;;;13.29;67.17;99428.41;4125014;28;20267;-33
2022/10/21 03:02:01;;;;;;;68.77;18.40;;;;;;;13.37;66.55;99418.44;4127394;28;20267;-32
2022/10/21 03:04:03;;;;;;;69.13;17.37;;;;;;;13.37;66.31;99418.44;4119633;28;20920;-32
2022/10/21 03:06:05;;;;;;;46.03;16.10;;;;;;;13.17;67.02;99416.59;4124210;28;21085;-32
2022/10/21 03:08:07;;;;;;;46.13;16.87;;;;;;;12.66;68.01;99434.22;4129761;28;20812;-32
2022/10/21 03:10:08;;;;;;;76.53;17.30;;;;;;;12.90;67.65;99424.69;4142227;28;20247;-32
2022/10/21 03:12:10;;;;;;;73.23;18.17;;;;;;;13.97;64.05;99372.44;4141291;28;20260;-32
2022/10/21 03:14:12;;;;;;;50.13;16.03;;;;;;;12.89;66.73;99433.81;4133810;28;20680;-32
2022/10/21 03:16:13;;;;;;;86.00;17.30;;;;;;;12.45;68.55;99435.25;4123675;28;20809;-32
2022/10/21 03:18:15;;;;;;;75.40;16.90;;;;;;;12.93;67.34;99412.72;4125369;28;20260;-32
2022/10/21 03:20:17;;;;;;;79.57;17.37;;;;;;;13.31;65.79;99384.34;4125644;28;20315;-32
2022/10/21 03:22:19;;;;;;;63.53;18.00;;;;;;;12.71;67.24;99409.44;4126801;28;20324;-32
2022/10/21 03:24:20;;;;;;;66.30;17.47;;;;;;;12.26;68.51;99431.47;4121708;28;20244;-32
2022/10/21 03:26:29;;;;;;;88.93;18.93;;;;;;;13.48;66.09;99367.53;4122638;28;20697;-32
2022/10/21 03:28:30;;;;;;;71.73;18.50;;;;;;;13.18;66.11;99382.53;4124604;28;20736;-32
2022/10/21 03:30:32;;;;;;;82.73;17.90;;;;;;;12.90;66.77;99413.16;4122412;28;20249;-32
2022/10/21 03:32:34;;;;;;;106.20;19.57;;;;;;;13.30;66.79;99378.16;4144961;28;20679;-32
2022/10/21 03:34:36;;;;;;;61.27;17.00;;;;;;;13.62;64.86;99371.00;4130967;28;20235;-32
2022/10/21 03:36:38;;;;;;;46.30;16.47;;;;;;;14.24;62.70;99356.97;4124602;28;20311;-33
2022/10/21 03:38:40;;;;;;;51.03;17.00;;;;;;;12.95;66.19;99423.28;4128338;28;20279;-32
2022/10/21 03:40:41;;;;;;;62.33;18.87;;;;;;;13.46;65.00;99388.44;4127402;28;20320;-32
2022/10/21 03:42:43;;;;;;;37.93;17.43;;;;;;;15.29;60.88;99328.38;4136607;28;20235;-32
2022/10/21 03:44:45;;;;;;;30.07;16.83;;;;;;;13.02;65.80;99434.81;4127933;28;20232;-32
2022/10/21 03:46:46;;;;;;;33.83;16.73;;;;;;;13.54;65.00;99411.53;4125074;28;20300;-31
2022/10/21 03:48:48;;;;;;;26.57;16.50;;;;;;;14.27;63.31;99377.22;4125956;28;20328;-32
2022/10/21 03:50:50;;;;;;;24.37;16.03;;;;;;;13.87;63.53;99424.03;4121213;28;20606;-32
2022/10/21 03:52:51;;;;;;;24.80;14.73;;;;;;;13.85;64.29;99420.69;4122399;28;20268;-32
2022/10/21 03:54:53;;;;;;;22.03;16.07;;;;;;;14.67;63.32;99366.13;4136762;28;20228;-32
2022/10/21 03:56:55;;;;;;;23.20;15.37;;;;;;;14.56;61.42;99387.34;4147010;28;20229;-32
2022/10/21 03:58:56;;;;;;;20.03;14.20;;;;;;;15.20;60.89;99387.16;4130451;28;20725;-32
2022/10/21 04:00:59;;;;;;;22.40;14.87;;;;;;;14.39;61.44;99414.00;4123471;28;20236;-32
2022/10/21 04:03:01;;;;;;;19.53;14.23;;;;;;;14.14;62.84;99432.81;4126284;28;20283;-32
2022/10/21 04:05:03;;;;;;;19.27;14.20;;;;;;;15.57;59.78;99370.16;4125365;28;20233;-32
2022/10/21 04:07:04;;;;;;;21.97;14.97;;;;;;;14.05;63.44;99442.13;4125140;28;20665;-33
2022/10/21 04:09:06;;;;;;;23.13;14.67;;;;;;;14.07;62.97;99433.88;4125655;28;20235;-31
2022/10/21 04:11:08;;;;;;;23.93;15.87;;;;;;;14.28;63.06;99411.19;4133674;28;21013;-33
2022/10/21 04:13:09;;;;;;;26.23;16.00;;;;;;;14.42;62.96;99410.03;4133041;28;20271;-33
2022/10/21 04:15:13;;;;;;;23.40;15.47;;;;;;;13.90;63.60;99423.56;4123940;28;20736;-33
2022/10/21 04:17:14;;;;;;;24.20;15.53;;;;;;;13.95;63.89;99426.47;4147083;28;20225;-31
2022/10/21 04:19:18;;;;;;;23.77;16.00;;;;;;;15.74;60.35;99354.16;4129390;28;20299;-33
2022/10/21 04:21:20;;;;;;;25.10;15.70;;;;;;;15.55;59.92;99380.34;4129024;28;20233;-33
2022/10/21 04:23:26;;;;;;;23.13;15.20;;;;;;;15.59;59.78;99389.63;4124661;28;20319;-33
2022/10/21 04:25:28;;;;;;;20.03;13.97;;;;;;;15.21;61.23;99393.38;4131219;28;20604;-33
2022/10/21 04:27:31;;;;;;;15.73;12.57;;;;;;;16.33;57.81;99376.75;4120870;28;20624;-36
2022/10/21 04:29:33;;;;;;;19.80;13.63;;;;;;;16.29;57.46;99383.66;4127340;28;20914;-37
2022/10/21 04:31:35;;;;;;;19.47;13.30;;;;;;;16.38;57.36;99376.88;4125513;28;20240;-34
2022/10/21 04:33:38;;;;;;;17.47;12.57;;;;;;;14.83;61.12;99448.25;4129340;28;20264;-36
2022/10/21 04:35:40;;;;;;;21.60;15.07;;;;;;;14.62;62.05;99455.63;4144361;28;20316;-34
2022/10/21 04:37:42;;;;;;;19.13;13.97;;;;;;;15.04;60.99;99414.69;4139551;28;20201;-34
2022/10/21 04:39:43;;;;;;;24.67;16.07;;;;;;;15.02;60.79;99424.88;4164107;28;20296;-36
2022/10/21 04:41:47;;;;;;;26.50;17.63;;;;;;;15.89;59.30;99392.31;4150633;28;20255;-37
2022/10/21 04:43:49;;;;;;;26.63;18.43;;;;;;;15.65;59.68;99386.00;4125812;28;20319;-34
2022/10/21 04:45:51;;;;;;;22.50;16.03;;;;;;;14.69;61.06;99431.34;4142577;28;20501;-35
2022/10/21 04:47:53;;;;;;;21.90;15.17;;;;;;;16.04;59.27;99370.31;4137632;28;20762;-35
2022/10/21 04:49:54;;;;;;;22.73;15.93;;;;;;;15.67;59.69;99386.59;4128837;28;20555;-35
2022/10/21 04:51:56;;;;;;;19.23;14.23;;;;;;;15.34;60.34;99409.41;4121460;28;20544;-37
2022/10/21 04:53:58;;;;;;;21.80;14.70;;;;;;;15.30;60.07;99405.47;4123807;28;20340;-36
2022/10/21 04:55:59;;;;;;;22.70;13.53;;;;;;;14.64;62.01;99436.56;4125577;28;20268;-37
2022/10/21 04:58:01;;;;;;;21.03;14.50;;;;;;;14.65;62.20;99419.38;4135589;28;20229;-38
2022/10/21 05:00:04;;;;;;;23.13;15.03;;;;;;;14.55;62.80;99426.06;4143395;28;20236;-37
2022/10/21 05:02:06;;;;;;;20.37;14.67;;;;;;;13.96;63.80;99438.03;4141395;28;20736;-37
2022/10/21 05:04:08;;;;;;;22.23;14.47;;;;;;;14.46;62.73;99396.94;4122438;28;20614;-37
2022/10/21 05:06:09;;;;;;;19.47;14.03;;;;;;;15.20;61.90;99338.66;4127440;28;20407;-37
2022/10/21 05:08:11;;;;;;;15.90;12.63;;;;;;;15.98;58.95;99325.38;4130741;28;20548;-35
2022/10/21 05:10:13;;;;;;;16.70;13.40;;;;;;;16.36;57.96;99326.84;4130129;28;20259;-37
2022/10/21 05:12:14;;;;;;;17.53;13.30;;;;;;;15.72;58.84;99348.97;4128649;28;20326;-38
2022/10/21 05:14:16;;;;;;;16.30;12.40;;;;;;;15.68;59.52;99361.28;4126796;28;20252;-35
2022/10/21 05:16:23;;;;;;;16.83;12.70;;;;;;;16.36;58.01;99340.34;4129822;28;20286;-34
2022/10/21 05:18:25;;;;;;;21.07;13.47;;;;;;;16.85;56.60;99335.50;4131891;28;20400;-34
2022/10/21 05:20:26;;;;;;;19.50;12.07;;;;;;;14.42;61.89;99419.97;4133082;28;20252;-34
2022/10/21 05:22:28;;;;;;;15.63;12.10;;;;;;;15.18;60.71;99391.13;4126673;28;20258;-36
2022/10/21 05:24:30;;;;;;;16.23;11.60;;;;;;;13.84;64.20;99408.31;4138527;28;20231;-35
2022/10/21 05:26:32;;;;;;;17.47;12.47;;;;;;;14.91;61.88;99368.00;4165339;28;20250;-36
2022/10/21 05:28:33;;;;;;;17.03;12.40;;;;;;;13.90;63.85;99404.75;4139040;28;20255;-37
2022/10/21 05:30:35;;;;;;;19.23;11.57;;;;;;;14.42;63.86;99366.13;4122463;28;20570;-36
2022/10/21 05:32:38;;;;;;;16.10;11.53;;;;;;;14.66;63.07;99337.53;4139742;28;20377;-35
2022/10/21 05:34:40;;;;;;;18.67;12.63;;;;;;;14.48;62.66;99349.94;4148236;28;20231;-35
2022/10/21 05:36:42;;;;;;;16.67;11.90;;;;;;;14.47;63.63;99355.53;4130702;28;20327;-36
2022/10/21 05:38:44;;;;;;;17.70;12.60;;;;;;;14.02;64.55;99368.06;4121937;28;20268;-35
2022/10/21 05:40:46;;;;;;;14.83;11.40;;;;;;;13.80;65.01;99364.06;4119955;28;20280;-34
2022/10/21 05:42:48;;;;;;;15.13;12.00;;;;;;;14.64;63.62;99299.25;4140096;28;20277;-37
2022/10/21 05:44:50;;;;;;;15.73;12.63;;;;;;;15.12;61.97;99295.84;4131639;28;20255;-38
2022/10/21 05:46:51;;;;;;;16.67;12.77;;;;;;;14.67;62.70;99336.50;4125349;28;20796;-38
2022/10/21 05:48:53;;;;;;;14.90;12.50;;;;;;;13.60;64.88;99358.81;4132354;28;20318;-37
2022/10/21 05:50:55;;;;;;;16.37;12.60;;;;;;;14.92;62.79;99296.06;4143631;28;20264;-35
2022/10/21 05:52:57;;;;;;;15.00;11.67;;;;;;;13.78;64.56;99344.63;4147235;28;20233;-35
2022/10/21 05:54:59;;;;;;;19.23;11.97;;;;;;;14.34;63.30;99330.41;4123040;28;20312;-36
2022/10/21 05:57:01;;;;;;;24.70;17.47;;;;;;;15.41;60.63;99271.81;4109149;28;20513;-36
2022/10/21 05:59:03;;;;;;;19.37;17.37;;;;;;;15.31;61.13;99292.03;4125358;28;20256;-35
2022/10/21 06:01:10;;;;;;;23.50;19.40;;;;;;;14.41;63.36;99341.09;4140469;28;20259;-35
2022/10/21 06:03:12;;;;;;;23.50;21.00;;;;;;;14.29;63.73;99342.84;4131668;28;20235;-36
2022/10/21 06:05:14;;;;;;;22.17;18.67;;;;;;;15.47;61.22;99285.22;4143167;28;20590;-37
2022/10/21 06:07:16;;;;;;;17.53;13.77;;;;;;;14.26;62.82;99357.56;4121817;28;20291;-35
2022/10/21 06:09:17;;;;;;;18.03;12.33;;;;;;;14.47;63.31;99355.53;4133677;28;20263;-37
2022/10/21 06:11:19;;;;;;;13.97;11.77;;;;;;;14.31;63.52;99362.31;4138197;28;20275;-34
2022/10/21 06:13:21;;;;;;;20.77;12.63;;;;;;;14.97;62.02;99311.56;4140989;28;20651;-38
2022/10/21 06:15:22;;;;;;;18.73;12.43;;;;;;;14.76;62.41;99333.31;4153733;28;20318;-36
2022/10/21 06:17:24;;;;;;;21.33;12.70;;;;;;;14.90;63.10;99325.13;4119774;28;20228;-35
2022/10/21 06:19:26;;;;;;;15.17;11.37;;;;;;;14.24;65.38;99356.13;4128788;28;20356;-34
2022/10/21 06:21:27;;;;;;;17.17;12.60;;;;;;;14.44;64.25;99343.31;4127654;28;20232;-34
2022/10/21 06:23:29;;;;;;;17.07;12.00;;;;;;;14.23;64.08;99373.34;4119203;28;20660;-36
2022/10/21 06:25:31;;;;;;;19.70;12.90;;;;;;;13.43;66.38;99385.31;4139211;28;20619;-36
2022/10/21 06:27:32;;;;;;;18.83;12.10;;;;;;;14.48;63.67;99352.63;4140280;28;20271;-37
2022/10/21 06:29:34;;;;;;;18.47;13.20;;;;;;;14.53;63.98;99352.78;4140451;28;20242;-37
2022/10/21 06:31:36;;;;;;;16.07;12.53;;;;;;;14.47;64.71;99353.66;4123359;28;20723;-37
2022/10/21 06:33:37;;;;;;;20.17;12.83;;;;;;;14.11;65.25;99376.72;4126101;28;20242;-35
2022/10/21 06:35:39;;;;;;;18.83;13.17;;;;;;;13.57;66.79;99380.75;4125696;28;20267;-35
2022/10/21 06:37:41;;;;;;;19.30;12.97;;;;;;;13.82;65.72;99360.13;4150605;28;20617;-34
2022/10/21 06:39:42;;;;;;;19.50;12.73;;;;;;;14.39;65.32;99319.78;4128542;28;20690;-34
2022/10/21 06:41:44;;;;;;;22.67;12.67;;;;;;;15.49;62.56;99272.31;4128155;28;20331;-36
2022/10/21 06:43:45;;;;;;;21.23;12.17;;;;;;;15.85;60.53;99261.66;4126963;28;20248;-35
2022/10/21 06:45:47;;;;;;;21.77;13.17;;;;;;;15.34;61.52;99304.25;4115588;28;20237;-37
2022/10/21 06:47:49;;;;;;;20.17;13.43;;;;;;;14.55;63.69;99358.75;4114301;28;20429;-35
2022/10/21 06:49:50;;;;;;;19.90;13.30;;;;;;;15.82;60.94;99287.19;4127744;28;20308;-34
2022/10/21 06:51:52;;;;;;;19.33;12.60;;;;;;;15.37;62.44;99308.34;4124705;28;20334;-38
2022/10/21 06:53:56;;;;;;;17.80;11.93;;;;;;;16.20;60.02;99282.47;4122436;28;20248;-37
2022/10/21 06:56:06;;;;;;;19.77;12.40;;;;;;;15.74;60.46;99302.91;4126024;28;20891;-37
2022/10/21 06:58:08;;;;;;;18.83;13.13;;;;;;;15.58;61.64;99317.88;4125840;28;20240;-37
2022/10/21 07:00:11;;;;;;;18.63;12.07;;;;;;;15.69;61.41;99317.09;4150413;28;20315;-37
2022/10/21 07:02:13;;;;;;;17.87;11.77;;;;;;;15.26;62.36;99345.81;4132723;28;20657;-37
2022/10/21 07:04:14;;;;;;;17.00;11.67;;;;;;;14.91;63.73;99369.84;4112712;28;20249;-37
2022/10/21 07:06:16;;;;;;;17.47;10.97;;;;;;;14.94;63.45;99385.56;4137653;28;20316;-37
2022/10/21 07:08:18;;;;;;;21.37;12.60;;;;;;;14.39;65.18;99395.16;4120302;28;20328;-37
2022/10/21 07:10:30;;;;;;;14.40;11.00;;;;;;;15.75;62.33;99316.16;4127585;28;20258;-37
2022/10/21 07:12:31;;;;;;;20.00;11.80;;;;;;;15.44;62.62;99336.88;4127582;28;20264;-37
2022/10/21 07:14:33;;;;;;;18.47;11.87;;;;;;;14.67;64.64;99363.44;4127957;28;20248;-37
2022/10/21 07:16:36;;;;;;;18.77;11.40;;;;;;;14.01;66.32;99382.53;4129314;28;20272;-38
2022/10/21 07:18:38;;;;;;;17.50;11.20;;;;;;;13.85;67.14;99388.44;4128309;28;20266;-37
2022/10/21 07:20:43;;;;;;;17.93;10.23;;;;;;;14.49;66.03;99342.66;4127394;28;20244;-37
2022/10/21 07:22:44;;;;;;;17.63;9.87;;;;;;;14.80;65.67;99314.00;4117616;28;20347;-37
2022/10/21 07:24:46;;;;;;;15.00;8.97;;;;;;;13.99;67.68;99368.50;4130162;28;20808;-37
2022/10/21 07:26:48;;;;;;;17.77;9.07;;;;;;;14.25;67.03;99366.69;4149420;28;20757;-37
2022/10/21 07:28:51;;;;;;;19.47;10.37;;;;;;;15.75;63.21;99299.97;4132419;28;20427;-37
2022/10/21 07:30:52;;;;;;;16.23;10.20;;;;;;;15.73;62.57;99307.47;4128994;28;20240;-37
2022/10/21 07:32:54;;;;;;;17.17;9.90;;;;;;;15.86;61.80;99328.88;4134158;28;20691;-37
2022/10/21 07:34:56;;;;;;;15.73;8.93;;;;;;;15.90;61.72;99325.72;4135416;28;20256;-37
2022/10/21 07:36:57;;;;;;;13.53;8.53;;;;;;;16.30;60.76;99327.78;4129099;28;20257;-37
2022/10/21 07:39:04;;;;;;;17.20;8.70;;;;;;;15.27;64.63;99358.25;4129644;28;20489;-37
2022/10/21 07:41:05;;;;;;;13.70;8.07;;;;;;;14.66;65.97;99384.16;4125600;28;20260;-37
2022/10/21 07:43:08;;;;;;;13.33;8.67;;;;;;;15.36;64.01;99339.91;4127030;28;20299;-37
2022/10/21 07:45:10;;;;;;;17.17;8.23;;;;;;;15.34;63.64;99339.31;4141353;28;20705;-37
2022/10/21 07:47:12;;;;;;;12.53;8.50;;;;;;;15.16;64.38;99350.91;4126437;28;20658;-37
2022/10/21 07:49:16;;;;;;;15.00;8.80;;;;;;;15.18;64.40;99353.38;4167192;28;20290;-37
2022/10/21 07:51:20;;;;;;;19.07;9.20;;;;;;;15.22;63.89;99347.34;4119839;28;20248;-37
2022/10/21 07:53:25;;;;;;;17.07;9.47;;;;;;;16.36;61.49;99340.34;4136232;28;20743;-37
2022/10/21 07:55:28;;;;;;;18.07;8.77;;;;;;;15.46;63.37;99379.81;4131910;28;20264;-38
2022/10/21 07:57:29;;;;;;;16.90;8.87;;;;;;;15.88;62.52;99361.00;4130532;28;20272;-38
2022/10/21 07:59:31;;;;;;;16.63;9.13;;;;;;;15.37;64.22;99382.00;4131791;28;20268;-37
2022/10/21 08:01:34;;;;;;;15.30;8.73;;;;;;;16.15;62.48;99347.94;4127005;28;20559;-37
2022/10/21 08:03:37;;;;;;;18.00;8.10;;;;;;;16.49;61.18;99348.22;4122210;28;20755;-37
2022/10/21 08:05:40;;;;;;;15.80;8.97;;;;;;;15.66;63.49;99379.59;4113673;28;20576;-37
2022/10/21 08:07:42;;;;;;;15.43;8.90;;;;;;;15.75;62.56;99378.19;4123008;28;20260;-37
2022/10/21 08:09:44;;;;;;;13.93;8.70;;;;;;;15.83;62.84;99377.88;4119984;28;20507;-37
2022/10/21 08:11:45;;;;;;;11.83;8.20;;;;;;;16.00;62.71;99369.13;4120855;28;20220;-37
2022/10/21 08:13:47;;;;;;;18.50;8.67;;;;;;;16.52;61.43;99372.06;4131631;28;20201;-37
2022/10/21 08:15:52;;;;;;;12.37;7.70;;;;;;;14.23;67.13;99476.41;4152878;28;20255;-38
2022/10/21 08:17:53;;;;;;;13.37;7.57;;;;;;;15.35;64.39;99394.84;4126220;28;20613;-37
2022/10/21 08:19:55;;;;;;;14.63;7.97;;;;;;;14.71;66.02;99423.88;4123734;28;20233;-37
2022/10/21 08:21:58;;;;;;;16.37;7.10;;;;;;;14.14;67.46;99446.25;4135705;28;20756;-37
2022/10/21 08:24:02;;;;;;;13.13;7.10;;;;;;;15.30;65.58;99373.13;4133277;28;23051;-37
2022/10/21 08:26:09;;;;;;;11.10;6.73;;;;;;;14.15;68.39;99447.88;4126319;28;20237;-37
2022/10/21 08:28:10;;;;;;;10.50;6.30;;;;;;;14.38;68.28;99420.41;4118388;28;20340;-37
2022/10/21 08:30:14;;;;;;;10.33;6.00;;;;;;;14.48;67.83;99402.97;4139465;28;20319;-37
2022/10/21 08:32:16;;;;;;;7.77;5.50;;;;;;;14.48;68.44;99389.50;4137729;28;20241;-37
2022/10/21 08:34:17;;;;;;;11.47;5.70;;;;;;;13.98;69.81;99414.44;4125686;28;20816;-37
2022/10/21 08:36:24;;;;;;;10.57;5.20;;;;;;;13.42;71.41;99435.56;4121417;28;20336;-37
2022/10/21 08:38:25;;;;;;;10.13;5.90;;;;;;;15.18;67.05;99343.44;4116828;28;20304;-37
2022/10/21 18:09:18;;;;;;;3.77;3.10;;;;;;;18.15;53.21;99339.66;4168343;28;20226;-66
2022/10/21 18:11:20;;;;;;;3.57;2.73;;;;;;;18.35;53.00;99341.91;4197689;27;20622;-66
2022/10/21 18:13:23;;;;;;;4.50;2.27;;;;;;;18.52;51.95;99318.31;4190261;27;20300;-66
2022/10/21 18:15:27;;;;;;;3.47;2.20;;;;;;;18.86;51.92;99317.44;4199783;27;20316;-66
2022/10/21 18:17:32;;;;;;;3.07;2.27;;;;;;;18.33;52.44;99344.88;4193902;27;20824;-67
2022/10/21 18:19:35;;;;;;;4.13;2.20;;;;;;;18.75;52.02;99314.59;4191034;27;20329;-64
2022/10/21 18:21:37;;;;;;;4.87;2.30;;;;;;;19.13;51.44;99303.97;4205008;27;20731;-64
2022/10/21 18:23:40;;;;;;;4.57;3.03;;;;;;;18.99;50.86;99317.09;4198278;27;20506;-67
2022/10/21 18:25:42;;;;;;;4.27;2.90;;;;;;;19.07;51.36;99319.38;4200612;27;20238;-67
2022/10/21 18:27:44;;;;;;;3.43;2.83;;;;;;;19.81;49.99;99274.59;4189121;27;20618;-64
2022/10/21 18:29:45;;;;;;;6.57;3.20;;;;;;;18.70;51.33;99349.75;4218165;27;20802;-66
2022/10/21 18:31:47;;;;;;;5.07;4.33;;;;;;;19.13;49.96;99307.53;4198706;27;20221;-66
2022/10/21 18:33:52;;;;;;;6.53;5.03;;;;;;;18.58;51.71;99351.75;4178245;28;20236;-66
2022/10/21 18:35:53;;;;;;;6.40;3.33;;;;;;;17.61;53.69;99370.63;4202185;27;20231;-66
2022/10/21 18:37:55;;;;;;;4.83;2.60;;;;;;;18.24;52.95;99346.31;4197319;27;20351;-64
2022/10/21 18:39:57;;;;;;;4.57;2.60;;;;;;;17.35;54.35;99362.00;4196622;27;20329;-66
2022/10/21 18:41:59;;;;;;;8.10;2.50;;;;;;;18.41;52.57;99325.50;4199207;27;22236;-66
2022/10/21 18:44:06;;;;;;;11.47;8.80;;;;;;;17.43;53.79;99362.72;4209255;27;20297;-65
2022/10/21 18:46:08;;;;;;;17.50;10.20;;;;;;;17.63;54.17;99359.59;4184378;28;20677;-65
2022/10/21 18:48:10;;;;;;;19.03;12.13;;;;;;;18.07;53.22;99336.31;4190401;28;20316;-67
2022/10/21 18:50:13;;;;;;;18.10;11.53;;;;;;;17.74;54.01;99353.31;4188985;28;20392;-66
2022/10/21 18:52:14;;;;;;;8.40;5.30;;;;;;;17.10;55.20;99369.59;4209118;28;20254;-66
2022/10/21 18:54:16;;;;;;;11.13;7.60;;;;;;;17.45;54.81;99347.88;4196354;27;20324;-65
2022/10/21 18:56:19;;;;;;;8.53;4.80;;;;;;;16.31;55.99;99364.53;4206576;27;20243;-66
2022/10/21 18:58:20;;;;;;;5.17;3.27;;;;;;;17.27;54.36;99338.03;4183432;28;20237;-65
2022/10/21 19:00:22;;;;;;;9.13;4.10;;;;;;;17.91;53.76;99326.28;4190743;28;20239;-67